Time;durP1;ratioP1;P1;durP2;ratioP2;P2;SDS_P1;SDS_P2;PMS_P1;PMS_P2;Temp;Humidity;BMP_temperature;BMP_pressure;BME280_temperature;BME280_humidity;BME280_pressure;Samples;Min_cycle;Max_cycle;Signal;HPM_P1;HPM_P2
2021/09/25 00:01:06;;;;;;;;;;;20.70;66.80;;;;;;5017504;28;1387;-70
2021/09/25 00:03:31;;;;;;;;;;;20.60;66.70;;;;;;5035187;28;1423;-70
2021/09/25 00:05:57;;;;;;;;;;;20.70;66.80;;;;;;5035028;28;1081;-70
2021/09/25 00:08:22;;;;;;;;;;;20.70;66.80;;;;;;5034960;28;1229;-70
2021/09/25 00:10:47;;;;;;;;;;;20.60;66.80;;;;;;5034788;28;1652;-70
2021/09/25 00:13:13;;;;;;;;;;;20.60;66.80;;;;;;5034980;28;1965;-70
2021/09/25 00:15:38;;;;;;;;;;;20.60;66.80;;;;;;5034953;28;990;-70
2021/09/25 00:18:04;;;;;;;;;;;20.60;66.80;;;;;;5034851;28;1353;-70
2021/09/25 00:20:29;;;;;;;;;;;20.60;66.90;;;;;;5034388;28;1494;-71
2021/09/25 00:22:55;;;;;;;;;;;20.60;66.90;;;;;;5017189;28;1829;-71
2021/09/25 00:25:20;;;;;;;;;;;20.60;66.90;;;;;;5017041;28;1644;-69
2021/09/25 00:27:46;;;;;;;;;;;20.60;66.90;;;;;;5033693;28;1472;-69
2021/09/25 00:30:11;;;;;;;;;;;20.60;66.90;;;;;;5034444;28;1678;-69
2021/09/25 00:32:38;;;;;;;;;;;20.60;66.90;;;;;;5016938;28;1902;-69
2021/09/25 00:35:03;;;;;;;;;;;20.60;66.90;;;;;;5016428;28;1357;-69
2021/09/25 00:37:28;;;;;;;;;;;20.60;66.90;;;;;;5015881;28;1349;-68
2021/09/25 00:39:54;;;;;;;;;;;20.60;67.00;;;;;;5034120;28;1628;-69
2021/09/25 00:42:19;;;;;;;;;;;20.60;67.00;;;;;;5034405;28;1340;-69
2021/09/25 00:44:45;;;;;;;;;;;20.60;66.90;;;;;;5034094;28;1448;-69
2021/09/25 00:47:12;;;;;;;;;;;20.60;67.00;;;;;;5034195;28;1657;-69
2021/09/25 00:49:37;;;;;;;;;;;20.60;67.00;;;;;;5033444;28;1392;-69
2021/09/25 00:52:03;;;;;;;;;;;20.60;67.00;;;;;;5033082;28;1902;-69
2021/09/25 00:54:28;;;;;;;;;;;20.60;67.00;;;;;;5034038;28;1643;-69
2021/09/25 00:56:54;;;;;;;;;;;20.60;67.00;;;;;;5034048;28;1489;-69
2021/09/25 00:59:19;;;;;;;;;;;20.60;67.00;;;;;;5034084;28;1687;-69
2021/09/25 01:01:45;;;;;;;;;;;20.60;67.10;;;;;;5015799;28;1431;-69
2021/09/25 01:04:10;;;;;;;;;;;20.60;67.10;;;;;;5016322;28;1374;-69
2021/09/25 01:06:36;;;;;;;;;;;20.60;67.10;;;;;;5016155;28;1422;-69
2021/09/25 01:09:02;;;;;;;;;;;20.60;67.10;;;;;;5033808;28;1366;-69
2021/09/25 01:11:27;;;;;;;;;;;20.60;67.10;;;;;;5032573;28;1018;-69
2021/09/25 01:13:53;;;;;;;;;;;20.60;67.10;;;;;;5026293;28;1898;-70
2021/09/25 01:16:18;;;;;;;;;;;20.60;67.10;;;;;;5027477;28;1649;-69
2021/09/25 01:18:44;;;;;;;;;;;20.60;67.20;;;;;;5033402;28;1371;-68
2021/09/25 01:21:09;;;;;;;;;;;20.60;67.20;;;;;;5020033;28;1315;-68
2021/09/25 01:23:35;;;;;;;;;;;20.60;67.20;;;;;;5016065;28;1676;-69
2021/09/25 01:26:00;;;;;;;;;;;20.60;67.20;;;;;;5033612;28;1415;-69
2021/09/25 01:28:26;;;;;;;;;;;20.60;67.20;;;;;;5032925;28;1336;-69
2021/09/25 01:30:52;;;;;;;;;;;20.60;67.30;;;;;;5014477;28;1407;-70
2021/09/25 01:33:24;;;;;;;;;;;20.60;67.20;;;;;;5015229;28;1961;-69
2021/09/25 01:35:50;;;;;;;;;;;20.60;67.20;;;;;;5032917;28;879;-69
2021/09/25 01:38:15;;;;;;;;;;;20.60;68.00;;;;;;5033782;28;1214;-69
2021/09/25 01:40:40;;;;;;;;;;;20.60;67.30;;;;;;5032901;28;1652;-69
2021/09/25 01:43:06;;;;;;;;;;;20.60;67.30;;;;;;5033269;28;1029;-69
2021/09/25 01:45:31;;;;;;;;;;;20.60;67.20;;;;;;5033325;28;1628;-69
2021/09/25 01:47:57;;;;;;;;;;;20.60;67.10;;;;;;5032963;28;1390;-69
2021/09/25 01:50:22;;;;;;;;;;;20.60;67.10;;;;;;5031775;28;1024;-69
2021/09/25 01:52:48;;;;;;;;;;;20.60;67.00;;;;;;5032748;28;1958;-69
2021/09/25 01:55:13;;;;;;;;;;;20.60;67.10;;;;;;5032750;28;1440;-69
2021/09/25 01:57:38;;;;;;;;;;;20.60;67.00;;;;;;5032438;28;1376;-69
2021/09/25 02:00:05;;;;;;;;;;;20.60;66.90;;;;;;5032671;28;1396;-69
2021/09/25 02:02:30;;;;;;;;;;;20.70;66.90;;;;;;5014999;28;1382;-70
2021/09/25 02:04:55;;;;;;;;;;;20.60;66.70;;;;;;5032442;28;1441;-70
2021/09/25 02:07:21;;;;;;;;;;;20.70;66.70;;;;;;5033077;28;1247;-70
2021/09/25 02:09:46;;;;;;;;;;;20.70;66.70;;;;;;5033032;28;907;-71
2021/09/25 02:12:12;;;;;;;;;;;20.70;66.60;;;;;;5031865;28;1934;-71
2021/09/25 02:14:37;;;;;;;;;;;20.70;66.60;;;;;;5014820;28;1274;-70
2021/09/25 02:17:03;;;;;;;;;;;20.70;66.60;;;;;;5014348;28;1545;-70
2021/09/25 02:19:28;;;;;;;;;;;20.70;66.50;;;;;;5032329;28;1388;-69
2021/09/25 02:21:54;;;;;;;;;;;20.80;66.60;;;;;;5031358;28;1111;-69
2021/09/25 02:24:19;;;;;;;;;;;20.70;66.40;;;;;;5032698;28;1355;-70
2021/09/25 02:26:45;;;;;;;;;;;20.80;66.40;;;;;;5032592;28;1829;-71
2021/09/25 02:29:10;;;;;;;;;;;20.80;66.50;;;;;;5015046;28;1160;-71
2021/09/25 02:31:35;;;;;;;;;;;20.80;66.50;;;;;;5032606;28;1551;-71
2021/09/25 02:34:01;;;;;;;;;;;20.80;66.40;;;;;;4994187;28;1480;-71
2021/09/25 02:36:26;;;;;;;;;;;20.80;66.30;;;;;;5012778;28;1404;-71
2021/09/25 02:38:52;;;;;;;;;;;20.80;66.40;;;;;;5030880;28;1290;-71
2021/09/25 02:41:17;;;;;;;;;;;20.80;66.40;;;;;;5012909;28;1311;-71
2021/09/25 02:43:43;;;;;;;;;;;20.80;66.40;;;;;;5030573;28;1295;-71
2021/09/25 02:46:08;;;;;;;;;;;20.80;66.30;;;;;;5030536;28;1349;-71
2021/09/25 02:48:33;;;;;;;;;;;20.80;66.30;;;;;;5031383;28;1257;-71
2021/09/25 02:50:59;;;;;;;;;;;20.80;66.30;;;;;;5032539;28;1329;-71
2021/09/25 02:53:24;;;;;;;;;;;20.80;66.30;;;;;;5036370;28;1910;-71
2021/09/25 02:55:50;;;;;;;;;;;20.80;66.30;;;;;;5036323;28;1349;-71
2021/09/25 02:58:15;;;;;;;;;;;20.80;66.40;;;;;;5036234;28;1259;-71
2021/09/25 03:00:41;;;;;;;;;;;20.80;66.40;;;;;;5035972;28;1141;-71
2021/09/25 03:03:06;;;;;;;;;;;20.80;66.40;;;;;;5018311;28;1292;-71
2021/09/25 03:05:32;;;;;;;;;;;20.80;66.30;;;;;;5036136;28;1140;-71
2021/09/25 03:07:57;;;;;;;;;;;20.80;66.30;;;;;;5036009;28;1294;-71
2021/09/25 03:10:23;;;;;;;;;;;20.80;66.40;;;;;;5035899;28;1124;-71
2021/09/25 03:12:48;;;;;;;;;;;20.80;66.40;;;;;;5036032;28;1902;-71
2021/09/25 03:15:13;;;;;;;;;;;20.80;66.40;;;;;;5035983;28;1329;-70
2021/09/25 03:17:39;;;;;;;;;;;20.80;66.40;;;;;;5018044;28;1350;-71
2021/09/25 03:20:05;;;;;;;;;;;20.80;66.40;;;;;;5035680;28;1125;-71
2021/09/25 03:22:30;;;;;;;;;;;20.70;66.40;;;;;;5035790;28;1081;-71
2021/09/25 03:24:55;;;;;;;;;;;20.80;66.50;;;;;;5035807;28;1195;-71
2021/09/25 03:27:22;;;;;;;;;;;20.80;67.20;;;;;;5035843;28;1343;-71
2021/09/25 03:29:47;;;;;;;;;;;20.80;66.50;;;;;;5018525;28;1140;-71
2021/09/25 03:32:13;;;;;;;;;;;20.80;66.50;;;;;;5017939;28;1910;-71
2021/09/25 03:34:38;;;;;;;;;;;20.80;66.50;;;;;;5035549;28;1187;-71
2021/09/25 03:37:04;;;;;;;;;;;20.80;66.50;;;;;;5035633;28;1312;-71
2021/09/25 03:39:29;;;;;;;;;;;20.80;66.50;;;;;;5035548;28;1187;-71
2021/09/25 03:41:55;;;;;;;;;;;20.70;66.50;;;;;;5035198;28;1280;-71
2021/09/25 03:44:20;;;;;;;;;;;20.70;66.50;;;;;;5035451;28;1361;-71
2021/09/25 03:46:46;;;;;;;;;;;20.70;66.50;;;;;;5017954;28;1128;-71
2021/09/25 03:49:11;;;;;;;;;;;20.70;66.50;;;;;;5035336;28;1164;-71
2021/09/25 03:51:37;;;;;;;;;;;20.70;66.50;;;;;;5035145;28;1191;-71
2021/09/25 03:54:02;;;;;;;;;;;20.70;66.50;;;;;;5017406;28;1899;-71
2021/09/25 03:56:27;;;;;;;;;;;20.70;66.50;;;;;;5035318;28;1120;-71
2021/09/25 03:58:53;;;;;;;;;;;20.70;66.50;;;;;;5035054;28;1276;-71
2021/09/25 04:01:18;;;;;;;;;;;20.70;66.60;;;;;;5034764;28;1271;-71
2021/09/25 04:03:44;;;;;;;;;;;20.70;66.70;;;;;;5033793;28;1263;-71
2021/09/25 04:06:10;;;;;;;;;;;20.70;66.70;;;;;;4997980;28;1129;-71
2021/09/25 04:08:35;;;;;;;;;;;20.70;66.70;;;;;;5013663;28;1286;-71
2021/09/25 04:11:01;;;;;;;;;;;20.70;66.70;;;;;;5034656;28;1128;-71
2021/09/25 04:13:26;;;;;;;;;;;20.70;66.70;;;;;;5017162;28;1902;-71
2021/09/25 04:15:52;;;;;;;;;;;20.70;66.70;;;;;;5017058;28;1143;-71
2021/09/25 04:18:17;;;;;;;;;;;20.70;66.70;;;;;;5017011;28;1362;-71
2021/09/25 04:20:42;;;;;;;;;;;20.70;66.60;;;;;;5016784;28;1264;-71
2021/09/25 04:23:08;;;;;;;;;;;20.70;66.60;;;;;;5016956;28;1247;-71
2021/09/25 04:25:33;;;;;;;;;;;20.70;66.50;;;;;;5034698;28;1316;-71
2021/09/25 04:28:05;;;;;;;;;;;20.70;66.50;;;;;;5016854;28;1228;-71
2021/09/25 04:30:31;;;;;;;;;;;20.70;66.40;;;;;;5017094;28;1358;-71
2021/09/25 04:32:56;;;;;;;;;;;20.80;66.50;;;;;;5034576;28;1910;-71
2021/09/25 04:35:21;;;;;;;;;;;20.80;66.50;;;;;;5034634;28;1344;-71
2021/09/25 04:37:47;;;;;;;;;;;20.80;66.50;;;;;;5034195;28;1319;-71
2021/09/25 04:40:12;;;;;;;;;;;20.80;66.50;;;;;;5033670;28;1085;-71
2021/09/25 04:42:38;;;;;;;;;;;20.80;66.40;;;;;;5034115;28;1356;-71
2021/09/25 04:45:03;;;;;;;;;;;20.80;66.30;;;;;;5033772;28;1200;-71
2021/09/25 04:47:29;;;;;;;;;;;20.80;66.30;;;;;;5015746;28;1404;-71
2021/09/25 04:49:54;;;;;;;;;;;20.80;66.30;;;;;;5015520;28;1175;-71
2021/09/25 04:52:20;;;;;;;;;;;20.80;66.40;;;;;;5033169;28;1955;-71
2021/09/25 04:54:45;;;;;;;;;;;20.80;66.50;;;;;;5034159;28;1068;-71
2021/09/25 04:57:11;;;;;;;;;;;20.80;66.50;;;;;;5033963;28;1283;-71
2021/09/25 04:59:36;;;;;;;;;;;20.80;66.70;;;;;;5033906;28;1077;-71
2021/09/25 05:02:02;;;;;;;;;;;20.80;66.70;;;;;;5015827;28;1142;-71
2021/09/25 05:04:27;;;;;;;;;;;20.80;66.70;;;;;;5016395;28;1266;-71
2021/09/25 05:06:52;;;;;;;;;;;20.80;66.80;;;;;;5033787;28;1103;-71
2021/09/25 05:09:19;;;;;;;;;;;20.80;66.90;;;;;;5033745;28;1274;-71
2021/09/25 05:11:44;;;;;;;;;;;20.80;67.00;;;;;;5033496;28;1910;-71
2021/09/25 05:14:10;;;;;;;;;;;20.80;67.00;;;;;;5033025;28;1337;-71
2021/09/25 05:16:35;;;;;;;;;;;20.90;67.10;;;;;;5033853;28;1323;-71
2021/09/25 05:19:01;;;;;;;;;;;20.80;67.10;;;;;;5033529;28;1325;-70
2021/09/25 05:21:26;;;;;;;;;;;20.80;67.10;;;;;;5015804;28;1287;-70
2021/09/25 05:23:51;;;;;;;;;;;20.90;67.20;;;;;;5015984;28;1273;-70
2021/09/25 05:26:17;;;;;;;;;;;20.90;67.20;;;;;;5033695;28;1366;-70
2021/09/25 05:28:42;;;;;;;;;;;20.90;67.30;;;;;;5015673;28;1219;-70
2021/09/25 05:31:11;;;;;;;;;;;20.90;67.20;;;;;;5033166;28;1261;-71
2021/09/25 05:33:37;;;;;;;;;;;20.90;67.20;;;;;;5033463;28;1964;-70
2021/09/25 05:36:03;;;;;;;;;;;20.90;67.20;;;;;;5033430;28;1332;-71
2021/09/25 05:38:28;;;;;;;;;;;20.90;67.20;;;;;;5033537;28;1227;-70
2021/09/25 05:40:54;;;;;;;;;;;20.90;67.20;;;;;;5033067;28;1284;-70
2021/09/25 05:43:19;;;;;;;;;;;20.90;67.20;;;;;;5033050;28;1123;-70
2021/09/25 05:45:44;;;;;;;;;;;20.90;67.20;;;;;;5033069;28;1443;-70
2021/09/25 05:48:10;;;;;;;;;;;20.90;67.20;;;;;;5004129;28;2067;-71
2021/09/25 05:50:35;;;;;;;;;;;20.90;67.20;;;;;;5030625;28;1138;-71
2021/09/25 05:53:01;;;;;;;;;;;20.90;67.20;;;;;;5032359;28;1894;-71
2021/09/25 05:55:26;;;;;;;;;;;20.90;67.30;;;;;;5031779;28;1127;-69
2021/09/25 05:57:56;;;;;;;;;;;20.90;67.20;;;;;;5032683;28;1264;-70
2021/09/25 06:00:21;;;;;;;;;;;20.90;67.20;;;;;;5015760;28;1323;-70
2021/09/25 06:02:47;;;;;;;;;;;20.90;67.20;;;;;;5032633;28;1108;-68
2021/09/25 06:05:12;;;;;;;;;;;20.90;67.20;;;;;;5033114;28;1277;-68
2021/09/25 06:07:38;;;;;;;;;;;20.90;67.30;;;;;;5032772;28;1264;-67
2021/09/25 06:10:03;;;;;;;;;;;20.90;67.90;;;;;;5015086;28;1331;-67
2021/09/25 06:12:29;;;;;;;;;;;20.90;67.90;;;;;;5014844;28;1970;-68
2021/09/25 06:14:55;;;;;;;;;;;20.90;67.60;;;;;;5001835;28;1186;-69
2021/09/25 06:17:21;;;;;;;;;;;20.90;67.80;;;;;;5032937;28;1229;-72
2021/09/25 06:19:46;;;;;;;;;;;21.00;67.90;;;;;;5012722;28;1338;-72
2021/09/25 06:22:11;;;;;;;;;;;21.00;67.80;;;;;;5021535;28;1069;-72
2021/09/25 06:24:37;;;;;;;;;;;21.00;67.90;;;;;;5015007;28;1096;-69
2021/09/25 06:27:02;;;;;;;;;;;21.00;67.80;;;;;;5016775;28;1257;-68
2021/09/25 06:29:28;;;;;;;;;;;21.00;67.80;;;;;;5036537;28;1300;-68
2021/09/25 06:31:53;;;;;;;;;;;21.00;67.80;;;;;;5018715;28;1910;-70
2021/09/25 06:34:19;;;;;;;;;;;21.00;67.80;;;;;;5019027;28;1348;-71
2021/09/25 06:36:44;;;;;;;;;;;21.00;67.80;;;;;;5036767;28;1344;-70
2021/09/25 06:39:10;;;;;;;;;;;21.00;67.80;;;;;;5036086;28;1324;-69
2021/09/25 06:41:35;;;;;;;;;;;21.00;67.80;;;;;;5036091;28;1301;-71
2021/09/25 06:44:01;;;;;;;;;;;21.00;67.80;;;;;;5036608;28;1101;-70
2021/09/25 06:46:26;;;;;;;;;;;21.10;67.80;;;;;;5036762;28;1084;-70
2021/09/25 06:48:52;;;;;;;;;;;21.10;67.80;;;;;;5027819;28;2023;-70
2021/09/25 06:51:17;;;;;;;;;;;21.10;67.90;;;;;;5028486;28;2248;-70
2021/09/25 06:53:43;;;;;;;;;;;21.10;67.90;;;;;;5036323;28;1906;-70
2021/09/25 06:56:08;;;;;;;;;;;21.10;67.80;;;;;;5036125;28;1245;-69
2021/09/25 06:58:34;;;;;;;;;;;21.10;67.80;;;;;;5018540;28;1327;-69
2021/09/25 07:00:59;;;;;;;;;;;21.10;67.80;;;;;;5036011;28;1268;-69
2021/09/25 07:03:25;;;;;;;;;;;21.10;67.90;;;;;;5036246;28;1121;-69
2021/09/25 07:05:50;;;;;;;;;;;21.10;67.80;;;;;;5018450;28;1286;-69
2021/09/25 07:08:16;;;;;;;;;;;21.10;67.80;;;;;;5035997;28;1347;-69
2021/09/25 07:10:41;;;;;;;;;;;21.10;67.80;;;;;;5018168;28;1247;-70
2021/09/25 07:13:07;;;;;;;;;;;21.10;67.80;;;;;;5035169;28;1907;-70
2021/09/25 07:15:32;;;;;;;;;;;21.10;67.80;;;;;;5023586;28;1250;-69
2021/09/25 07:17:57;;;;;;;;;;;21.10;67.90;;;;;;5036047;28;1268;-69
2021/09/25 07:20:23;;;;;;;;;;;21.10;67.80;;;;;;5017981;28;1188;-69
2021/09/25 07:22:51;;;;;;;;;;;21.10;67.90;;;;;;5035746;28;1324;-69
2021/09/25 07:25:20;;;;;;;;;;;21.10;67.90;;;;;;4998404;28;1345;-69
2021/09/25 07:27:45;;;;;;;;;;;21.10;67.90;;;;;;5012595;28;1383;-69
2021/09/25 07:30:11;;;;;;;;;;;21.10;68.00;;;;;;5017901;28;1275;-69
2021/09/25 07:32:37;;;;;;;;;;;21.10;68.00;;;;;;5035407;28;1989;-69
2021/09/25 07:35:02;;;;;;;;;;;21.10;68.00;;;;;;5017447;28;1443;-69
2021/09/25 07:37:28;;;;;;;;;;;21.10;68.10;;;;;;5035389;28;1304;-70
2021/09/25 07:39:53;;;;;;;;;;;21.00;68.00;;;;;;5035207;28;1359;-69
2021/09/25 07:42:21;;;;;;;;;;;21.00;68.00;;;;;;5035235;28;1326;-70
2021/09/25 07:44:47;;;;;;;;;;;21.00;68.10;;;;;;5018206;28;1061;-70
2021/09/25 07:47:12;;;;;;;;;;;21.00;68.10;;;;;;5017513;28;1350;-70
2021/09/25 07:49:38;;;;;;;;;;;21.00;68.10;;;;;;5017618;28;1361;-70
2021/09/25 07:52:04;;;;;;;;;;;21.00;68.20;;;;;;5017151;28;1894;-69
2021/09/25 07:54:29;;;;;;;;;;;21.00;68.20;;;;;;5035142;28;1266;-70
2021/09/25 07:56:55;;;;;;;;;;;21.00;68.20;;;;;;5035112;28;1407;-69
2021/09/25 07:59:20;;;;;;;;;;;21.00;68.20;;;;;;5035258;28;1277;-69
2021/09/25 08:01:46;;;;;;;;;;;21.00;68.20;;;;;;5034854;28;1317;-69
2021/09/25 08:04:12;;;;;;;;;;;21.00;68.30;;;;;;5035055;28;1321;-69
2021/09/25 08:06:37;;;;;;;;;;;21.00;68.30;;;;;;5034899;28;1324;-70
2021/09/25 08:09:02;;;;;;;;;;;21.00;68.30;;;;;;5034826;28;1291;-70
2021/09/25 08:11:28;;;;;;;;;;;21.00;68.30;;;;;;5034509;28;1075;-70
2021/09/25 08:13:53;;;;;;;;;;;21.00;68.40;;;;;;5017140;28;1895;-70
2021/09/25 08:16:19;;;;;;;;;;;21.00;68.40;;;;;;5034872;28;1336;-70
2021/09/25 08:18:44;;;;;;;;;;;21.00;68.40;;;;;;5034867;28;1351;-69
2021/09/25 08:21:10;;;;;;;;;;;21.00;68.40;;;;;;5034478;28;1176;-69
2021/09/25 08:23:35;;;;;;;;;;;21.00;68.50;;;;;;5034636;28;1368;-70
2021/09/25 08:26:01;;;;;;;;;;;21.00;68.50;;;;;;5034502;28;1284;-69
2021/09/25 08:28:26;;;;;;;;;;;21.00;68.50;;;;;;5034360;28;1344;-70
2021/09/25 08:30:52;;;;;;;;;;;20.90;68.50;;;;;;5016675;28;1332;-71
2021/09/25 08:33:17;;;;;;;;;;;20.90;68.50;;;;;;5034334;28;1965;-69
2021/09/25 08:35:43;;;;;;;;;;;20.90;68.50;;;;;;5034606;28;1452;-69
2021/09/25 08:38:08;;;;;;;;;;;20.90;68.60;;;;;;5034385;28;1312;-70
2021/09/25 08:40:33;;;;;;;;;;;20.90;68.60;;;;;;5033966;28;1279;-69
2021/09/25 08:42:59;;;;;;;;;;;20.90;68.60;;;;;;5034359;28;1335;-70
2021/09/25 08:45:24;;;;;;;;;;;20.90;68.70;;;;;;5016699;28;1327;-69
2021/09/25 08:47:50;;;;;;;;;;;20.90;68.70;;;;;;5034014;28;1383;-69
2021/09/25 08:50:15;;;;;;;;;;;20.90;68.70;;;;;;5015508;28;1281;-69
2021/09/25 08:52:41;;;;;;;;;;;20.90;68.70;;;;;;5016270;28;1973;-70
2021/09/25 08:55:07;;;;;;;;;;;20.90;68.80;;;;;;5034178;28;1347;-70
2021/09/25 08:57:33;;;;;;;;;;;20.90;68.80;;;;;;5033806;28;1353;-71
2021/09/25 09:00:17;;;;;;;;;;;20.90;68.80;;;;;;5033738;28;1289;-70
2021/09/25 09:02:42;;;;;;;;;;;20.90;68.90;;;;;;5033895;28;1061;-70
2021/09/25 09:05:08;;;;;;;;;;;20.90;68.90;;;;;;5016485;28;1253;-70
2021/09/25 09:07:33;;;;;;;;;;;20.90;68.90;;;;;;5033438;28;1330;-69
2021/09/25 09:09:58;;;;;;;;;;;20.90;68.90;;;;;;5033571;28;1375;-70
2021/09/25 09:12:25;;;;;;;;;;;20.90;69.00;;;;;;5033844;28;1962;-69
2021/09/25 09:14:51;;;;;;;;;;;20.90;69.00;;;;;;5033688;28;1260;-69
2021/09/25 09:17:17;;;;;;;;;;;20.90;69.10;;;;;;5016000;28;1254;-69
2021/09/25 09:19:42;;;;;;;;;;;20.90;69.10;;;;;;5014512;28;1343;-70
2021/09/25 09:22:08;;;;;;;;;;;20.90;69.10;;;;;;5028084;28;2256;-70
2021/09/25 09:24:40;;;;;;;;;;;20.90;69.10;;;;;;5008729;28;2037;-70
2021/09/25 09:27:38;;;;;;;;;;;20.90;69.20;;;;;;5024851;28;1206;-70
2021/09/25 09:30:07;;;;;;;;;;;20.90;69.20;;;;;;4976560;28;1316;-70
2021/09/25 09:32:34;;;;;;;;;;;20.80;69.10;;;;;;5033262;28;1910;-70
2021/09/25 09:35:06;;;;;;;;;;;20.80;69.20;;;;;;5015807;28;1309;-70
2021/09/25 09:37:32;;;;;;;;;;;20.80;69.20;;;;;;5033465;28;1310;-70
2021/09/25 09:39:58;;;;;;;;;;;20.80;69.10;;;;;;5033064;28;1140;-70
2021/09/25 09:42:23;;;;;;;;;;;20.80;69.10;;;;;;5015753;28;1085;-70
2021/09/25 09:44:50;;;;;;;;;;;20.80;69.20;;;;;;5029397;28;1769;-70
2021/09/25 09:47:19;;;;;;;;;;;20.80;69.20;;;;;;5026488;28;1297;-70
2021/09/25 09:49:46;;;;;;;;;;;20.80;69.20;;;;;;5005552;28;1160;-70
2021/09/25 09:52:12;;;;;;;;;;;20.80;69.20;;;;;;5029007;28;1957;-70
2021/09/25 09:54:38;;;;;;;;;;;20.80;69.50;;;;;;5015482;28;1282;-70
2021/09/25 09:57:14;;;;;;;;;;;20.80;69.70;;;;;;5033100;28;1268;-70
2021/09/25 09:59:39;;;;;;;;;;;20.80;70.00;;;;;;5031817;28;1028;-69
2021/09/25 10:02:05;;;;;;;;;;;20.80;69.70;;;;;;5002511;28;1357;-70
2021/09/25 10:04:30;;;;;;;;;;;20.80;69.60;;;;;;5032965;28;1304;-70
2021/09/25 10:06:56;;;;;;;;;;;20.80;69.60;;;;;;5033005;28;1365;-70
2021/09/25 10:09:22;;;;;;;;;;;20.80;69.80;;;;;;5015232;28;1294;-69
2021/09/25 10:11:49;;;;;;;;;;;20.80;69.80;;;;;;5014997;28;1380;-70
2021/09/25 10:14:16;;;;;;;;;;;20.80;69.80;;;;;;5032694;28;1902;-70
2021/09/25 10:16:41;;;;;;;;;;;20.80;69.80;;;;;;5015268;28;1571;-70
2021/09/25 10:19:07;;;;;;;;;;;20.80;69.80;;;;;;5015077;28;1360;-70
2021/09/25 10:21:33;;;;;;;;;;;20.80;69.80;;;;;;4985297;28;1193;-70
2021/09/25 10:24:01;;;;;;;;;;;20.80;69.80;;;;;;5015474;28;1324;-70
2021/09/25 10:26:27;;;;;;;;;;;20.80;69.80;;;;;;5015160;28;1273;-70
2021/09/25 10:28:56;;;;;;;;;;;20.80;69.80;;;;;;4998240;28;1311;-70
2021/09/25 10:31:22;;;;;;;;;;;20.80;69.90;;;;;;5014824;28;1335;-70
2021/09/25 10:34:06;;;;;;;;;;;20.80;69.90;;;;;;5032536;28;1959;-70
2021/09/25 10:36:49;;;;;;;;;;;20.80;69.90;;;;;;5032686;28;1264;-70
2021/09/25 10:39:26;;;;;;;;;;;20.80;69.80;;;;;;5032229;28;1361;-70
2021/09/25 10:42:06;;;;;;;;;;;20.80;69.90;;;;;;5032638;28;1265;-70
2021/09/25 10:44:33;;;;;;;;;;;20.80;69.90;;;;;;5032402;28;1403;-70
2021/09/25 10:47:11;;;;;;;;;;;20.80;69.80;;;;;;5014993;28;1280;-70
2021/09/25 10:49:44;;;;;;;;;;;20.80;69.90;;;;;;5014709;28;1284;-70
2021/09/25 10:52:09;;;;;;;;;;;20.80;69.90;;;;;;5009946;28;2108;-70
2021/09/25 10:54:35;;;;;;;;;;;20.80;69.90;;;;;;5031638;28;1208;-70
2021/09/25 10:57:02;;;;;;;;;;;20.80;69.90;;;;;;5014892;28;1310;-70
2021/09/25 10:59:28;;;;;;;;;;;20.80;70.00;;;;;;5032209;28;1344;-70
2021/09/25 11:01:53;;;;;;;;;;;20.80;70.00;;;;;;5014538;28;1274;-69
2021/09/25 11:04:22;;;;;;;;;;;20.80;70.00;;;;;;5014441;28;1154;-70
2021/09/25 11:06:56;;;;;;;;;;;20.80;70.00;;;;;;5029247;28;1163;-70
2021/09/25 11:09:40;;;;;;;;;;;20.80;70.00;;;;;;5014845;28;1279;-69
2021/09/25 11:12:07;;;;;;;;;;;20.80;70.00;;;;;;5032471;28;1902;-70
2021/09/25 11:14:39;;;;;;;;;;;20.80;70.00;;;;;;5023347;28;1177;-70
2021/09/25 11:17:04;;;;;;;;;;;20.80;70.10;;;;;;5018805;28;1388;-70
2021/09/25 11:19:31;;;;;;;;;;;20.80;70.10;;;;;;5035787;28;1308;-70
2021/09/25 11:21:59;;;;;;;;;;;20.80;70.10;;;;;;5035565;28;1340;-70
2021/09/25 11:24:24;;;;;;;;;;;20.80;70.10;;;;;;5035861;28;1246;-70
2021/09/25 11:26:50;;;;;;;;;;;20.80;70.10;;;;;;5035853;28;1442;-70
2021/09/25 11:29:15;;;;;;;;;;;20.80;70.10;;;;;;5035319;28;1247;-69
2021/09/25 11:31:41;;;;;;;;;;;20.80;70.10;;;;;;5035443;28;1316;-70
2021/09/25 11:34:19;;;;;;;;;;;20.80;70.10;;;;;;5035403;28;1981;-70
2021/09/25 11:36:55;;;;;;;;;;;20.70;70.10;;;;;;5018028;28;1286;-70
2021/09/25 11:39:33;;;;;;;;;;;20.70;70.10;;;;;;5035355;28;1265;-70
2021/09/25 11:42:17;;;;;;;;;;;20.80;70.20;;;;;;5017827;28;1393;-70
2021/09/25 11:44:50;;;;;;;;;;;20.80;70.10;;;;;;5035385;28;1140;-70
2021/09/25 11:47:22;;;;;;;;;;;20.80;70.20;;;;;;5035746;28;1292;-70
2021/09/25 11:49:47;;;;;;;;;;;20.70;70.10;;;;;;5035305;28;1204;-70
2021/09/25 11:52:13;;;;;;;;;;;20.80;70.20;;;;;;5034540;28;2036;-69
2021/09/25 11:54:38;;;;;;;;;;;20.80;70.30;;;;;;5007622;28;1808;-69
2021/09/25 11:57:11;;;;;;;;;;;20.70;70.20;;;;;;5024146;28;1885;-69
2021/09/25 11:59:36;;;;;;;;;;;20.80;70.20;;;;;;5005576;28;1430;-69
2021/09/25 12:02:02;;;;;;;;;;;20.70;70.20;;;;;;5031663;28;1415;-69
2021/09/25 12:04:38;;;;;;;;;;;20.80;70.20;;;;;;5034910;28;1144;-69
2021/09/25 12:07:03;;;;;;;;;;;20.80;70.30;;;;;;5033291;28;1384;-69
2021/09/25 12:09:41;;;;;;;;;;;20.70;70.20;;;;;;5035042;28;1292;-69
2021/09/25 12:12:07;;;;;;;;;;;20.70;70.20;;;;;;5017011;28;1895;-69
2021/09/25 12:14:44;;;;;;;;;;;20.70;70.20;;;;;;5034811;28;1284;-69
2021/09/25 12:17:14;;;;;;;;;;;20.80;70.40;;;;;;5010501;28;1155;-70
2021/09/25 12:19:40;;;;;;;;;;;20.70;70.40;;;;;;5034683;28;1261;-69
2021/09/25 12:22:06;;;;;;;;;;;20.70;70.40;;;;;;5034555;28;1250;-69
2021/09/25 12:24:32;;;;;;;;;;;20.70;70.30;;;;;;5033333;28;1245;-69
2021/09/25 12:26:57;;;;;;;;;;;20.70;70.40;;;;;;5017115;28;1357;-69
2021/09/25 12:29:24;;;;;;;;;;;20.70;70.40;;;;;;5034891;28;1406;-69
2021/09/25 12:31:58;;;;;;;;;;;20.70;71.20;;;;;;5016889;28;1275;-69
2021/09/25 12:34:24;;;;;;;;;;;20.70;70.60;;;;;;5035101;28;1906;-70
2021/09/25 12:36:53;;;;;;;;;;;20.80;70.80;;;;;;5034536;28;1244;-70
2021/09/25 12:39:22;;;;;;;;;;;20.80;71.00;;;;;;5034477;28;1358;-70
2021/09/25 12:41:48;;;;;;;;;;;20.80;71.10;;;;;;5016430;28;1279;-70
2021/09/25 12:44:14;;;;;;;;;;;20.70;71.10;;;;;;5034031;28;1339;-70
2021/09/25 12:46:40;;;;;;;;;;;20.80;71.30;;;;;;5034337;28;1258;-70
2021/09/25 12:49:07;;;;;;;;;;;20.70;71.30;;;;;;5034208;28;1335;-70
2021/09/25 12:51:36;;;;;;;;;;;20.70;71.30;;;;;;5016253;28;1281;-69
2021/09/25 12:54:05;;;;;;;;;;;20.80;71.60;;;;;;5034146;28;1894;-69
2021/09/25 12:56:38;;;;;;;;;;;20.80;71.60;;;;;;5034299;28;1387;-70
2021/09/25 12:59:05;;;;;;;;;;;20.80;71.60;;;;;;5033956;28;1345;-70
2021/09/25 13:01:30;;;;;;;;;;;20.80;71.70;;;;;;5033786;28;1301;-69
2021/09/25 13:03:56;;;;;;;;;;;20.80;71.90;;;;;;5034033;28;1323;-69
2021/09/25 13:06:25;;;;;;;;;;;20.80;71.80;;;;;;5016345;28;1277;-69
2021/09/25 13:08:59;;;;;;;;;;;20.80;71.80;;;;;;5030900;28;2319;-69
2021/09/25 13:11:25;;;;;;;;;;;20.80;71.80;;;;;;5022262;28;993;-70
2021/09/25 13:14:04;;;;;;;;;;;20.80;71.80;;;;;;5009132;28;1898;-69
2021/09/25 13:16:29;;;;;;;;;;;20.80;71.80;;;;;;5028943;28;1297;-69
2021/09/25 13:18:58;;;;;;;;;;;20.80;71.70;;;;;;5033592;28;1280;-69
2021/09/25 13:21:25;;;;;;;;;;;20.80;71.70;;;;;;5033230;28;1271;-70
2021/09/25 13:23:57;;;;;;;;;;;20.80;71.60;;;;;;5015683;28;1038;-70
2021/09/25 13:26:23;;;;;;;;;;;20.80;71.50;;;;;;5033443;28;1318;-70
2021/09/25 13:28:48;;;;;;;;;;;20.80;71.60;;;;;;5033497;28;1325;-70
2021/09/25 13:31:13;;;;;;;;;;;20.80;71.60;;;;;;5033393;28;1443;-70
2021/09/25 13:33:39;;;;;;;;;;;20.80;71.50;;;;;;5033533;28;1910;-72
2021/09/25 13:36:04;;;;;;;;;;;20.80;71.50;;;;;;5033120;28;1310;-72
2021/09/25 13:38:30;;;;;;;;;;;20.80;71.40;;;;;;5033162;28;1384;-72
2021/09/25 13:40:55;;;;;;;;;;;20.80;71.60;;;;;;5015339;28;1301;-72
2021/09/25 13:43:21;;;;;;;;;;;20.80;71.50;;;;;;5033326;28;1127;-72
2021/09/25 13:45:46;;;;;;;;;;;20.80;71.50;;;;;;5033201;28;1273;-71
2021/09/25 13:48:11;;;;;;;;;;;20.70;71.30;;;;;;5033235;28;1259;-72
2021/09/25 13:50:37;;;;;;;;;;;20.80;71.50;;;;;;5015419;28;1254;-71
2021/09/25 13:53:05;;;;;;;;;;;20.80;71.50;;;;;;5028097;28;1903;-71
2021/09/25 13:55:31;;;;;;;;;;;20.80;71.60;;;;;;5028145;28;1189;-72
2021/09/25 13:57:56;;;;;;;;;;;20.80;71.60;;;;;;5033502;28;1455;-72
2021/09/25 14:00:22;;;;;;;;;;;20.80;71.60;;;;;;5032630;28;1433;-72
2021/09/25 14:02:50;;;;;;;;;;;20.80;71.60;;;;;;5032763;28;1392;-72
2021/09/25 14:05:15;;;;;;;;;;;20.80;71.60;;;;;;5032325;28;1042;-72
2021/09/25 14:07:41;;;;;;;;;;;20.80;71.60;;;;;;5032840;28;1269;-72
2021/09/25 14:10:07;;;;;;;;;;;20.80;71.50;;;;;;5014972;28;1358;-71
2021/09/25 14:12:32;;;;;;;;;;;20.80;71.50;;;;;;5033084;28;1902;-72
2021/09/25 14:14:58;;;;;;;;;;;20.80;71.60;;;;;;5032774;28;1297;-72
2021/09/25 14:17:23;;;;;;;;;;;20.80;71.60;;;;;;5032400;28;1282;-72
2021/09/25 14:19:49;;;;;;;;;;;20.80;71.60;;;;;;5032266;28;1293;-72
2021/09/25 14:22:14;;;;;;;;;;;20.80;71.60;;;;;;5014920;28;1301;-72
2021/09/25 14:24:40;;;;;;;;;;;20.80;71.60;;;;;;5032666;28;1170;-72
2021/09/25 14:27:08;;;;;;;;;;;20.80;71.50;;;;;;5032807;28;1344;-72